Time,TemperatureF,DewpointF,PressureIn,WindDirection,WindDirectionDegrees,WindSpeedMPH,WindSpeedGustMPH,Humidity,HourlyPrecipIn,Conditions,Clouds,dailyrainin,SoftwareType,DateUTC
2013-04-12 00:01:00,33.9,31.6,29.96,ENE,65,0.0,11.0,91,0.00,,,0.40,VWS V14.01,2013-04-12 04:01:00,
2013-04-12 00:16:00,34.1,31.8,29.95,NE,35,4.0,9.0,91,0.00,,,0.00,VWS V14.01,2013-04-12 04:16:00,
2013-04-12 02:01:00,34.5,32.7,29.87,ENE,61,1.0,8.0,93,0.07,,,0.07,VWS V14.01,2013-04-12 06:01:00,
2013-04-12 03:01:00,34.6,33.3,29.80,ENE,74,0.0,10.0,95,0.13,,,0.13,VWS V14.01,2013-04-12 07:01:00,
2013-04-12 03:16:00,34.5,33.2,29.78,ENE,59,5.0,11.0,95,0.06,,,0.13,VWS V14.01,2013-04-12 07:16:00,
2013-04-12 04:01:00,34.4,33.1,29.78,ENE,78,0.0,12.0,95,0.00,,,0.13,VWS V14.01,2013-04-12 08:01:00,
2013-04-12 04:31:00,34.5,33.5,29.77,ENE,59,4.0,12.0,96,0.00,,,0.13,VWS V14.01,2013-04-12 08:31:00,
2013-04-12 05:01:00,34.5,33.5,29.75,ENE,65,1.0,10.0,96,0.00,,,0.13,VWS V14.01,2013-04-12 09:01:00,
2013-04-12 05:16:00,34.4,33.4,29.75,NE,42,6.0,7.0,96,0.00,,,0.13,VWS V14.01,2013-04-12 09:16:00,
2013-04-12 05:31:00,34.4,33.4,29.75,ENE,61,1.0,6.0,96,0.01,,,0.14,VWS V14.01,2013-04-12 09:31:00,
2013-04-12 06:16:00,34.2,33.2,29.71,ENE,61,2.0,9.0,96,0.11,,,0.24,VWS V14.01,2013-04-12 10:16:00,
2013-04-12 06:46:00,34.3,33.3,29.69,ENE,67,1.0,8.0,96,0.16,,,0.30,VWS V14.01,2013-04-12 10:46:00,
2013-04-12 07:01:00,34.4,33.4,29.68,NE,51,2.0,6.0,96,0.17,,,0.32,VWS V14.01,2013-04-12 11:01:00,
2013-04-12 07:16:00,34.5,33.5,29.66,ENE,67,0.0,6.0,96,0.15,,,0.33,VWS V14.01,2013-04-12 11:16:00,
2013-04-12 08:01:00,35.0,34.2,29.63,ENE,64,2.0,4.0,97,0.11,,,0.41,VWS V14.01,2013-04-12 12:01:00,
2013-04-12 08:46:00,36.1,35.3,29.60,ESE,110,3.0,6.0,97,0.13,,,0.48,VWS V14.01,2013-04-12 12:46:00,
2013-04-12 09:01:00,36.7,35.9,29.60,ENE,67,3.0,5.0,97,0.13,,,0.51,VWS V14.01,2013-04-12 13:01:00,
2013-04-12 09:16:00,37.5,36.7,29.60,East,86,0.0,4.0,97,0.12,,,0.53,VWS V14.01,2013-04-12 13:16:00,
2013-04-12 10:31:00,40.9,40.4,29.56,East,101,0.0,4.0,98,0.20,,,0.73,VWS V14.01,2013-04-12 14:31:00,
2013-04-12 10:46:00,41.6,41.1,29.55,East,81,0.0,4.0,98,0.18,,,0.75,VWS V14.01,2013-04-12 14:46:00,
2013-04-12 11:46:00,45.3,44.8,29.53,SE,136,9.0,11.0,98,0.08,,,0.81,VWS V14.01,2013-04-12 15:46:00,
2013-04-12 12:16:00,46.8,46.3,29.52,South,169,5.0,14.0,98,0.04,,,0.81,VWS V14.01,2013-04-12 16:16:00,
2013-04-12 12:46:00,49.5,48.1,29.51,SSE,163,7.0,12.0,95,0.00,,,0.81,VWS V14.01,2013-04-12 16:46:00,
2013-04-12 13:16:00,50.8,48.0,29.51,South,186,7.0,12.0,90,0.00,,,0.81,VWS V14.01,2013-04-12 17:16:00,
2013-04-12 15:46:00,46.0,43.8,29.59,West,271,8.0,14.0,92,0.01,,,0.83,VWS V14.01,2013-04-12 19:46:00,
2013-04-12 17:16:00,47.4,41.5,29.63,SSW,202,4.0,17.0,80,0.00,,,0.83,VWS V14.01,2013-04-12 21:16:00,
2013-04-12 18:46:00,45.1,40.2,29.69,West,260,4.0,11.0,83,0.00,,,0.83,VWS V14.01,2013-04-12 22:46:00,
2013-04-12 19:01:00,44.6,39.8,29.69,NW,311,3.0,11.0,83,0.00,,,0.83,VWS V14.01,2013-04-12 23:01:00,
2013-04-12 20:31:00,41.1,38.4,29.74,SSW,211,4.0,12.0,90,0.00,,,0.83,VWS V14.01,2013-04-13 00:31:00,
2013-04-12 21:31:00,40.2,36.1,29.74,SW,217,3.0,14.0,85,0.00,,,0.83,VWS V14.01,2013-04-13 01:31:00,
2013-04-12 22:16:00,40.2,35.5,29.76,WSW,247,4.0,12.0,83,0.00,,,0.83,VWS V14.01,2013-04-13 02:16:00,
2013-04-12 22:31:00,40.2,35.2,29.76,WSW,238,2.0,13.0,82,0.00,,,0.83,VWS V14.01,2013-04-13 02:31:00,
2013-04-12 23:01:00,40.1,34.8,29.76,WSW,250,4.0,14.0,81,0.00,,,0.83,VWS V14.01,2013-04-13 03:01:00,
2013-04-12 23:16:00,40.2,34.8,29.75,SW,219,3.0,13.0,81,0.00,,,0.83,VWS V14.01,2013-04-13 03:16:00,
2013-04-12 23:31:00,40.1,34.8,29.75,WNW,287,4.0,12.0,81,0.00,,,0.83,VWS V14.01,2013-04-13 03:31:00,
2013-04-12 23:46:00,40.1,35.1,29.75,SW,230,4.0,13.0,82,0.00,,,0.83,VWS V14.01,2013-04-13 03:46:00,